createdAt,value
2018-12-07T00:00:08.242Z,2.20
2018-12-07T00:01:08.234Z,1.90
2018-12-07T00:02:08.220Z,2.00
2018-12-07T00:03:08.237Z,2.70
2018-12-07T00:04:08.211Z,2.00
2018-12-07T00:05:08.188Z,2.40
2018-12-07T00:06:08.176Z,2.60
2018-12-07T00:07:08.165Z,2.30
2018-12-07T00:08:08.176Z,3.00
2018-12-07T00:09:08.141Z,3.10
2018-12-07T00:10:08.130Z,2.70
2018-12-07T00:11:08.120Z,2.60
2018-12-07T00:12:08.109Z,2.30
2018-12-07T00:13:08.122Z,2.90
2018-12-07T00:14:08.089Z,4.40
2018-12-07T00:15:08.083Z,4.10
2018-12-07T00:16:08.084Z,2.90
2018-12-07T00:17:08.057Z,3.80
2018-12-07T00:18:08.066Z,3.30
2018-12-07T00:19:08.030Z,3.30
2018-12-07T00:20:08.037Z,3.90
2018-12-07T00:21:08.029Z,4.60
2018-12-07T00:22:08.002Z,4.60
2018-12-07T00:23:08.027Z,4.50
2018-12-07T00:24:07.978Z,5.40
2018-12-07T00:25:07.971Z,3.30
2018-12-07T00:26:07.974Z,4.50
2018-12-07T00:27:07.944Z,3.70
2018-12-07T00:28:07.938Z,4.20
2018-12-07T00:29:07.944Z,3.40
2018-12-07T00:30:07.911Z,5.00
2018-12-07T00:31:07.902Z,6.20
2018-12-07T00:32:07.893Z,4.60
2018-12-07T00:33:07.878Z,5.20
2018-12-07T00:34:07.903Z,5.20
2018-12-07T00:35:07.860Z,6.50
2018-12-07T00:36:07.843Z,5.60
2018-12-07T00:37:07.831Z,6.30
2018-12-07T00:38:07.824Z,6.30
2018-12-07T00:39:07.867Z,7.50
2018-12-07T00:40:07.807Z,5.50
2018-12-07T00:41:07.791Z,8.40
2018-12-07T00:42:07.810Z,8.50
2018-12-07T00:43:07.777Z,8.90
2018-12-07T00:44:08.066Z,8.70
2018-12-07T00:45:07.763Z,8.70
2018-12-07T00:46:07.779Z,7.20
2018-12-07T00:47:07.729Z,6.80
2018-12-07T00:48:07.722Z,7.80
2018-12-07T00:49:07.699Z,8.00
2018-12-07T00:50:07.709Z,3.60
2018-12-07T00:51:07.675Z,4.60
2018-12-07T00:52:07.667Z,6.10
2018-12-07T00:53:07.661Z,7.50
2018-12-07T00:54:07.644Z,6.60
2018-12-07T00:55:07.654Z,8.40
2018-12-07T00:56:07.620Z,6.30
2018-12-07T00:57:07.612Z,5.50
2018-12-07T00:58:07.602Z,5.60
2018-12-07T00:59:07.587Z,5.20
2018-12-07T01:00:07.602Z,4.30
2018-12-07T01:01:07.565Z,3.80
2018-12-07T01:02:07.555Z,3.90
2018-12-07T01:03:07.542Z,3.40
2018-12-07T01:04:07.531Z,3.70
2018-12-07T01:05:07.546Z,3.70
2018-12-07T01:06:07.508Z,2.60
2018-12-07T01:07:07.497Z,3.30
2018-12-07T01:08:07.489Z,3.10
2018-12-07T01:09:07.477Z,2.20
2018-12-07T01:10:07.487Z,2.40
2018-12-07T01:11:07.453Z,3.10
2018-12-07T01:12:07.442Z,2.50
2018-12-07T01:13:07.432Z,2.40
2018-12-07T01:14:07.420Z,2.10
2018-12-07T01:15:07.431Z,2.00
2018-12-07T01:16:07.398Z,1.60
2018-12-07T01:17:07.387Z,1.00
2018-12-07T01:18:07.375Z,1.30
2018-12-07T01:19:07.364Z,1.60
2018-12-07T01:20:07.377Z,1.40
2018-12-07T01:21:07.343Z,2.00
2018-12-07T01:22:07.330Z,1.50
2018-12-07T01:23:07.320Z,1.30
2018-12-07T01:24:07.310Z,2.10
2018-12-07T01:25:07.325Z,2.00
2018-12-07T01:26:07.286Z,1.80
2018-12-07T01:27:07.276Z,1.70
2018-12-07T01:28:07.266Z,1.90
2018-12-07T01:29:07.253Z,1.80
2018-12-07T01:30:07.241Z,1.90
2018-12-07T01:31:07.253Z,1.60
2018-12-07T01:32:07.220Z,2.00
2018-12-07T01:33:07.208Z,2.50
2018-12-07T01:34:07.197Z,2.10
2018-12-07T01:35:07.187Z,2.00
2018-12-07T01:36:07.201Z,1.60
2018-12-07T01:37:07.163Z,2.50
2018-12-07T01:38:07.153Z,1.80
2018-12-07T01:39:07.142Z,2.10
2018-12-07T01:40:07.131Z,2.30
2018-12-07T01:41:07.268Z,2.20
2018-12-07T01:42:07.108Z,1.70
2018-12-07T01:43:07.098Z,1.90
2018-12-07T01:44:07.087Z,2.30
2018-12-07T01:45:07.078Z,2.40
2018-12-07T01:46:07.067Z,2.50
2018-12-07T01:47:07.083Z,2.30
2018-12-07T01:48:07.041Z,2.50
2018-12-07T01:49:07.033Z,1.50
2018-12-07T01:50:07.021Z,2.30
2018-12-07T01:51:07.012Z,2.60
2018-12-07T01:52:07.030Z,3.20
2018-12-07T01:53:06.985Z,2.70
2018-12-07T01:54:06.975Z,2.10
2018-12-07T01:55:06.965Z,2.80
2018-12-07T01:56:06.952Z,3.10
2018-12-07T01:57:06.965Z,2.60
2018-12-07T01:58:06.931Z,2.60
2018-12-07T01:59:06.919Z,3.00
2018-12-07T02:00:06.908Z,3.50
2018-12-07T02:01:06.899Z,3.20
2018-12-07T02:02:06.909Z,3.60
2018-12-07T02:03:06.875Z,3.10
2018-12-07T02:04:06.864Z,3.00
2018-12-07T02:05:06.852Z,2.10
2018-12-07T02:06:06.841Z,2.80
2018-12-07T02:07:06.854Z,2.50
2018-12-07T02:08:06.819Z,2.30
2018-12-07T02:09:06.811Z,2.10
2018-12-07T02:10:06.799Z,2.60
2018-12-07T02:11:06.785Z,2.50
2018-12-07T02:12:06.809Z,2.90
2018-12-07T02:13:06.764Z,2.50
2018-12-07T02:14:06.752Z,1.90
2018-12-07T02:15:06.741Z,1.90
2018-12-07T02:16:06.732Z,1.70
2018-12-07T02:17:06.738Z,1.90
2018-12-07T02:18:06.735Z,1.90
2018-12-07T02:19:06.697Z,1.50
2018-12-07T02:20:06.686Z,1.80
2018-12-07T02:21:06.680Z,1.10
2018-12-07T02:22:06.664Z,1.10
2018-12-07T02:23:06.678Z,1.00
2018-12-07T02:24:06.643Z,1.00
2018-12-07T02:25:06.633Z,1.00
2018-12-07T02:26:06.619Z,0.90
2018-12-07T02:27:06.613Z,0.80
2018-12-07T02:28:06.626Z,0.90
2018-12-07T02:29:06.588Z,1.10
2018-12-07T02:30:06.578Z,0.60
2018-12-07T02:31:06.563Z,1.10
2018-12-07T02:32:06.553Z,1.30
2018-12-07T02:33:06.551Z,1.10
2018-12-07T02:34:06.557Z,0.80
2018-12-07T02:35:06.523Z,1.00
2018-12-07T02:36:06.510Z,0.90
2018-12-07T02:37:06.499Z,0.80
2018-12-07T02:38:06.502Z,0.90
2018-12-07T02:39:06.500Z,0.50
2018-12-07T02:40:06.464Z,0.80
2018-12-07T02:41:06.453Z,0.70
2018-12-07T02:42:06.445Z,0.90
2018-12-07T02:43:06.431Z,0.50
2018-12-07T02:44:06.445Z,0.40
2018-12-07T02:45:06.409Z,0.60
2018-12-07T02:46:06.400Z,0.60
2018-12-07T02:47:06.387Z,0.50
2018-12-07T02:48:06.376Z,0.50
2018-12-07T02:49:06.391Z,0.60
2018-12-07T02:50:06.353Z,0.50
2018-12-07T02:51:06.341Z,0.40
2018-12-07T02:52:06.330Z,0.30
2018-12-07T02:53:06.320Z,0.40
2018-12-07T02:54:06.336Z,0.40
2018-12-07T02:55:06.297Z,0.40
2018-12-07T02:56:06.285Z,0.30
2018-12-07T02:57:06.278Z,0.60
2018-12-07T02:58:06.265Z,0.40
2018-12-07T02:59:06.296Z,0.40
2018-12-07T03:00:06.242Z,0.30
2018-12-07T03:01:06.230Z,0.20
2018-12-07T03:02:06.221Z,0.30
2018-12-07T03:03:06.207Z,0.30
2018-12-07T03:04:06.197Z,0.40
2018-12-07T03:05:06.209Z,0.40
2018-12-07T03:06:06.183Z,0.30
2018-12-07T03:07:06.165Z,0.50
2018-12-07T03:08:06.155Z,0.30
2018-12-07T03:09:06.141Z,0.40
2018-12-07T03:10:06.156Z,0.50
2018-12-07T03:11:06.118Z,0.50
2018-12-07T03:12:06.111Z,0.60
2018-12-07T03:13:06.096Z,0.60
2018-12-07T03:14:06.085Z,0.80
2018-12-07T03:15:06.113Z,0.50
2018-12-07T03:16:06.064Z,0.60
2018-12-07T03:17:06.056Z,0.50
2018-12-07T03:18:06.044Z,0.60
2018-12-07T03:19:06.029Z,0.70
2018-12-07T03:20:06.018Z,0.50
2018-12-07T03:21:06.052Z,0.60
2018-12-07T03:22:05.996Z,0.80
2018-12-07T03:23:05.995Z,0.60
2018-12-07T03:24:05.976Z,0.70
2018-12-07T03:25:05.963Z,0.50
2018-12-07T03:26:06.013Z,0.90
2018-12-07T03:27:05.946Z,0.50
2018-12-07T03:28:05.933Z,0.70
2018-12-07T03:29:05.919Z,0.50
2018-12-07T03:30:05.917Z,0.70
2018-12-07T03:31:05.922Z,0.80
2018-12-07T03:32:05.887Z,0.80
2018-12-07T03:33:05.878Z,0.70
2018-12-07T03:34:05.864Z,0.80
2018-12-07T03:35:05.851Z,0.80
2018-12-07T03:36:05.876Z,0.70
2018-12-07T03:37:05.841Z,0.60
2018-12-07T03:38:05.833Z,0.50
2018-12-07T03:39:05.808Z,0.60
2018-12-07T03:40:05.796Z,0.30
2018-12-07T03:41:05.816Z,0.50
2018-12-07T03:42:05.773Z,0.80
2018-12-07T03:43:05.766Z,0.50
2018-12-07T03:44:05.754Z,0.30
2018-12-07T03:45:05.741Z,0.40
2018-12-07T03:46:05.765Z,0.30
2018-12-07T03:47:05.721Z,0.30
2018-12-07T03:48:05.706Z,0.40
2018-12-07T03:49:05.697Z,0.30
2018-12-07T03:50:05.688Z,0.30
2018-12-07T03:51:05.698Z,0.30
2018-12-07T03:52:05.663Z,0.30
2018-12-07T03:53:05.652Z,0.30
2018-12-07T03:54:05.642Z,0.40
2018-12-07T03:55:05.652Z,0.40
2018-12-07T03:56:05.655Z,0.30
2018-12-07T03:57:05.608Z,0.30
2018-12-07T03:58:05.598Z,0.30
2018-12-07T03:59:05.586Z,0.50
2018-12-07T04:00:05.574Z,0.30
2018-12-07T04:01:05.563Z,0.30
2018-12-07T04:02:05.585Z,0.30
2018-12-07T04:03:05.541Z,0.40
2018-12-07T04:04:05.541Z,0.40
2018-12-07T04:05:05.524Z,0.40
2018-12-07T04:06:05.509Z,0.50
2018-12-07T04:07:05.527Z,0.30
2018-12-07T04:08:05.487Z,0.50
2018-12-07T04:09:05.476Z,0.40
2018-12-07T04:10:05.472Z,0.80
2018-12-07T04:11:05.466Z,0.40
2018-12-07T04:12:05.470Z,0.40
2018-12-07T04:13:05.441Z,0.30
2018-12-07T04:14:05.424Z,0.40
2018-12-07T04:15:05.416Z,0.40
2018-12-07T04:16:05.397Z,0.30
2018-12-07T04:17:05.417Z,0.40
2018-12-07T04:18:05.375Z,0.40
2018-12-07T04:19:05.363Z,0.50
2018-12-07T04:20:05.359Z,0.40
2018-12-07T04:21:05.347Z,0.40
2018-12-07T04:22:05.382Z,0.40
2018-12-07T04:23:05.321Z,0.30
2018-12-07T04:24:05.435Z,0.40
2018-12-07T04:25:05.303Z,0.50
2018-12-07T04:26:05.301Z,0.20
2018-12-07T04:27:05.275Z,0.40
2018-12-07T04:28:05.293Z,0.40
2018-12-07T04:29:05.254Z,0.50
2018-12-07T04:30:05.244Z,0.60
2018-12-07T04:31:05.231Z,0.50
2018-12-07T04:32:05.226Z,0.80
2018-12-07T04:33:05.246Z,0.80
2018-12-07T04:34:05.202Z,0.60
2018-12-07T04:35:05.185Z,0.50
2018-12-07T04:36:07.566Z,0.60
2018-12-07T04:37:05.165Z,0.40
2018-12-07T04:38:05.181Z,0.80
2018-12-07T04:39:05.152Z,0.90
2018-12-07T04:40:05.135Z,0.40
2018-12-07T04:41:05.124Z,0.80
2018-12-07T04:42:05.110Z,0.80
2018-12-07T04:43:05.140Z,0.50
2018-12-07T04:44:05.088Z,1.00
2018-12-07T04:45:05.077Z,0.90
2018-12-07T04:46:05.066Z,0.90
2018-12-07T04:47:05.053Z,1.20
2018-12-07T04:48:05.052Z,1.30
2018-12-07T04:49:05.060Z,1.00
2018-12-07T04:50:05.027Z,1.40
2018-12-07T04:51:05.009Z,1.50
2018-12-07T04:52:04.997Z,1.50
2018-12-07T04:53:04.988Z,1.50
2018-12-07T04:54:05.005Z,1.30
2018-12-07T04:55:04.965Z,1.70
2018-12-07T04:56:04.962Z,2.00
2018-12-07T04:57:04.945Z,2.00
2018-12-07T04:58:04.932Z,2.00
2018-12-07T04:59:04.951Z,1.80
2018-12-07T05:00:04.914Z,1.90
2018-12-07T05:01:04.906Z,2.20
2018-12-07T05:02:04.888Z,2.50
2018-12-07T05:03:04.882Z,2.10
2018-12-07T05:04:04.863Z,2.70
2018-12-07T05:05:04.875Z,2.20
2018-12-07T05:06:04.841Z,2.90
2018-12-07T05:07:04.830Z,3.30
2018-12-07T05:08:04.820Z,3.10
2018-12-07T05:09:04.809Z,3.40
2018-12-07T05:10:04.831Z,3.30
2018-12-07T05:11:04.787Z,3.50
2018-12-07T05:12:04.776Z,3.50
2018-12-07T05:13:04.764Z,3.40
2018-12-07T05:14:04.755Z,3.40
2018-12-07T05:15:04.773Z,3.50
2018-12-07T05:16:04.734Z,3.90
2018-12-07T05:17:04.720Z,3.90
2018-12-07T05:18:04.712Z,4.40
2018-12-07T05:19:04.697Z,4.10
2018-12-07T05:20:04.717Z,3.60
2018-12-07T05:21:04.675Z,4.00
2018-12-07T05:22:04.667Z,4.40
2018-12-07T05:23:04.665Z,3.00
2018-12-07T05:24:04.645Z,3.70
2018-12-07T05:25:04.710Z,3.60
2018-12-07T05:26:04.621Z,4.20
2018-12-07T05:27:04.613Z,4.30
2018-12-07T05:28:04.602Z,5.00
2018-12-07T05:29:04.586Z,4.60
2018-12-07T05:30:04.614Z,4.50
2018-12-07T05:31:04.567Z,5.10
2018-12-07T05:32:04.554Z,4.80
2018-12-07T05:33:04.545Z,6.20
2018-12-07T05:34:04.536Z,5.10
2018-12-07T05:35:04.558Z,5.00
2018-12-07T05:36:04.510Z,5.50
2018-12-07T05:37:04.499Z,6.00
2018-12-07T05:38:04.492Z,6.20
2018-12-07T05:39:04.476Z,5.80
2018-12-07T05:40:04.489Z,6.10
2018-12-07T05:41:04.455Z,6.50
2018-12-07T05:42:04.444Z,5.80
2018-12-07T05:43:04.435Z,6.30
2018-12-07T05:44:04.422Z,6.60
2018-12-07T05:45:04.448Z,6.40
2018-12-07T05:46:04.399Z,6.40
2018-12-07T05:47:04.389Z,6.00
2018-12-07T05:48:04.382Z,6.20
2018-12-07T05:49:04.368Z,6.60
2018-12-07T05:50:04.357Z,6.30
2018-12-07T05:51:04.369Z,5.70
2018-12-07T05:52:04.332Z,7.00
2018-12-07T05:53:04.321Z,6.80
2018-12-07T05:54:04.313Z,6.10
2018-12-07T05:55:04.299Z,7.50
2018-12-07T05:56:04.313Z,7.30
2018-12-07T05:57:04.282Z,6.60
2018-12-07T05:58:04.266Z,6.30
2018-12-07T05:59:04.253Z,6.40
2018-12-07T06:00:04.245Z,7.40
2018-12-07T06:01:04.263Z,6.80
2018-12-07T06:02:04.221Z,8.00
2018-12-07T06:03:04.210Z,7.60
2018-12-07T06:04:04.199Z,7.10
2018-12-07T06:05:04.187Z,7.20
2018-12-07T06:06:04.199Z,8.20
2018-12-07T06:07:04.167Z,7.30
2018-12-07T06:08:04.155Z,7.60
2018-12-07T06:09:04.145Z,7.40
2018-12-07T06:10:04.131Z,7.20
2018-12-07T06:11:04.143Z,7.60
2018-12-07T06:12:04.109Z,7.30
2018-12-07T06:13:04.105Z,8.40
2018-12-07T06:14:04.087Z,6.70
2018-12-07T06:15:04.077Z,6.80
2018-12-07T06:16:04.089Z,6.90
2018-12-07T06:17:04.054Z,6.60
2018-12-07T06:18:04.043Z,6.90
2018-12-07T06:19:04.032Z,7.70
2018-12-07T06:20:04.020Z,7.40
2018-12-07T06:21:04.033Z,6.20
2018-12-07T06:22:03.998Z,7.80
2018-12-07T06:23:03.987Z,7.60
2018-12-07T06:24:03.976Z,8.60
2018-12-07T06:25:03.965Z,8.40
2018-12-07T06:26:03.985Z,6.10
2018-12-07T06:27:03.943Z,7.30
2018-12-07T06:28:03.931Z,7.60
2018-12-07T06:29:03.920Z,7.10
2018-12-07T06:30:03.910Z,6.80
2018-12-07T06:31:03.923Z,6.70
2018-12-07T06:32:03.890Z,6.80
2018-12-07T06:33:03.877Z,6.30
2018-12-07T06:34:03.865Z,7.50
2018-12-07T06:35:03.853Z,5.80
2018-12-07T06:36:03.884Z,7.50
2018-12-07T06:37:03.832Z,6.70
2018-12-07T06:38:03.822Z,7.00
2018-12-07T06:39:03.813Z,7.30
2018-12-07T06:40:03.798Z,6.90
2018-12-07T06:41:03.790Z,6.30
2018-12-07T06:42:03.807Z,7.20
2018-12-07T06:43:03.766Z,7.60
2018-12-07T06:44:03.755Z,7.10
2018-12-07T06:45:03.804Z,7.40
2018-12-07T06:46:03.737Z,7.80
2018-12-07T06:47:03.749Z,6.10
2018-12-07T06:48:03.717Z,6.80
2018-12-07T06:49:03.699Z,6.70
2018-12-07T06:50:03.689Z,5.90
2018-12-07T06:51:03.680Z,7.50
2018-12-07T06:52:03.689Z,6.80
2018-12-07T06:53:03.704Z,7.60
2018-12-07T06:54:03.644Z,8.00
2018-12-07T06:55:03.647Z,10.20
2018-12-07T06:56:03.621Z,9.60
2018-12-07T06:57:03.633Z,8.50
2018-12-07T06:58:03.600Z,8.60
2018-12-07T06:59:03.616Z,7.60
2018-12-07T07:00:03.578Z,8.90
2018-12-07T07:01:03.571Z,8.10
2018-12-07T07:02:03.581Z,7.20
2018-12-07T07:03:03.548Z,7.70
2018-12-07T07:04:03.534Z,7.40
2018-12-07T07:05:03.524Z,6.90
2018-12-07T07:06:03.512Z,7.70
2018-12-07T07:07:05.219Z,7.50
2018-12-07T07:08:03.690Z,7.70
2018-12-07T07:09:03.479Z,5.70
2018-12-07T07:10:03.469Z,7.60
2018-12-07T07:11:03.458Z,7.30
2018-12-07T07:12:03.476Z,6.90
2018-12-07T07:13:03.445Z,7.90
2018-12-07T07:14:03.432Z,6.80
2018-12-07T07:15:03.435Z,6.20
2018-12-07T07:16:03.481Z,7.00
2018-12-07T07:17:03.432Z,6.00
2018-12-07T07:18:03.384Z,8.00
2018-12-07T07:19:03.384Z,6.60
2018-12-07T07:20:03.484Z,7.30
2018-12-07T07:21:03.358Z,6.80
2018-12-07T07:22:03.377Z,6.60
2018-12-07T07:23:03.357Z,7.60
2018-12-07T07:24:03.332Z,6.00
2018-12-07T07:25:03.357Z,7.30
2018-12-07T07:26:03.327Z,7.00
2018-12-07T07:27:03.281Z,7.10
2018-12-07T07:28:03.557Z,6.90
2018-12-07T07:29:03.328Z,7.80
2018-12-07T07:30:03.252Z,7.30
2018-12-07T07:31:03.254Z,7.80
2018-12-07T07:32:03.230Z,7.80
2018-12-07T07:33:03.245Z,6.90
2018-12-07T07:34:03.205Z,7.80
2018-12-07T07:35:03.202Z,7.80
2018-12-07T07:36:03.185Z,7.40
2018-12-07T07:37:03.174Z,7.60
2018-12-07T07:38:03.190Z,8.90
2018-12-07T07:39:03.155Z,8.00
2018-12-07T07:40:03.374Z,8.10
2018-12-07T07:41:03.206Z,7.80
2018-12-07T07:42:03.116Z,6.90
2018-12-07T07:43:03.131Z,8.40
2018-12-07T07:44:03.114Z,9.00
2018-12-07T07:45:03.168Z,8.20
2018-12-07T07:46:03.071Z,8.50
2018-12-07T07:47:03.062Z,8.00
2018-12-07T07:48:03.075Z,8.30
2018-12-07T07:49:03.041Z,8.70
2018-12-07T07:50:03.041Z,8.50
2018-12-07T07:51:03.023Z,9.10
2018-12-07T07:52:03.011Z,9.70
2018-12-07T07:53:03.018Z,9.20
2018-12-07T07:54:03.029Z,8.30
2018-12-07T07:55:02.975Z,8.30
2018-12-07T07:56:02.964Z,9.50
2018-12-07T07:57:03.038Z,8.80
2018-12-07T07:58:02.986Z,8.00
2018-12-07T07:59:02.941Z,8.50
2018-12-07T08:00:02.920Z,8.60
2018-12-07T08:01:02.909Z,8.90
2018-12-07T08:02:02.899Z,7.20
2018-12-07T08:03:02.913Z,9.10
2018-12-07T08:04:02.876Z,10.00
2018-12-07T08:05:02.881Z,9.00
2018-12-07T08:06:02.892Z,8.40
2018-12-07T08:07:02.842Z,9.80
2018-12-07T08:08:02.855Z,8.20
2018-12-07T08:09:02.846Z,7.80
2018-12-07T08:10:02.811Z,7.80
2018-12-07T08:11:02.798Z,8.30
2018-12-07T08:12:02.790Z,7.90
2018-12-07T08:13:02.800Z,8.10
2018-12-07T08:14:02.765Z,8.90
2018-12-07T08:15:02.766Z,7.70
2018-12-07T08:16:02.748Z,7.50
2018-12-07T08:17:02.733Z,6.40
2018-12-07T08:18:02.746Z,7.70
2018-12-07T08:19:02.711Z,6.20
2018-12-07T08:20:02.697Z,6.70
2018-12-07T08:21:02.686Z,7.10
2018-12-07T08:22:02.976Z,7.30
2018-12-07T08:23:02.687Z,6.30
2018-12-07T08:24:02.654Z,6.40
2018-12-07T08:25:02.669Z,7.60
2018-12-07T08:26:02.632Z,7.40
2018-12-07T08:27:02.624Z,8.30
2018-12-07T08:28:02.649Z,9.60
2018-12-07T08:29:02.607Z,10.30
2018-12-07T08:30:02.598Z,9.30
2018-12-07T08:31:02.578Z,8.90
2018-12-07T08:32:02.569Z,8.50
2018-12-07T08:33:02.587Z,9.80
2018-12-07T08:34:02.546Z,8.80
2018-12-07T08:35:02.537Z,7.90
2018-12-07T08:36:02.528Z,8.00
2018-12-07T08:37:02.510Z,7.20
2018-12-07T08:38:02.535Z,7.00
2018-12-07T08:39:02.488Z,8.40
2018-12-07T08:40:02.487Z,6.30
2018-12-07T08:41:02.464Z,6.20
2018-12-07T08:42:06.812Z,4.90
2018-12-07T08:43:02.445Z,6.20
2018-12-07T08:44:02.458Z,5.70
2018-12-07T08:45:02.422Z,5.30
2018-12-07T08:46:02.480Z,5.70
2018-12-07T08:47:02.509Z,6.10
2018-12-07T08:48:02.390Z,5.70
2018-12-07T08:49:02.443Z,5.80
2018-12-07T08:50:02.370Z,6.40
2018-12-07T08:51:02.358Z,6.40
2018-12-07T08:52:02.346Z,6.20
2018-12-07T08:53:02.344Z,6.90
2018-12-07T08:54:02.343Z,6.10
2018-12-07T08:55:02.318Z,6.90
2018-12-07T08:56:02.311Z,6.20
2018-12-07T08:57:02.292Z,6.20
2018-12-07T08:58:02.275Z,6.10
2018-12-07T08:59:02.296Z,6.40
2018-12-07T09:00:02.253Z,5.90
2018-12-07T09:01:02.245Z,6.60
2018-12-07T09:02:02.232Z,6.50
2018-12-07T09:03:02.223Z,6.20
2018-12-07T09:04:02.244Z,6.10
2018-12-07T09:05:02.202Z,5.50
2018-12-07T09:06:02.188Z,6.10
2018-12-07T09:07:02.177Z,5.70
2018-12-07T09:08:02.173Z,5.10
2018-12-07T09:09:02.221Z,4.60
2018-12-07T09:10:02.156Z,5.30
2018-12-07T09:11:02.195Z,6.20
2018-12-07T09:12:02.230Z,5.40
2018-12-07T09:13:02.116Z,5.30
2018-12-07T09:14:02.279Z,5.50
2018-12-07T09:15:02.112Z,5.30
2018-12-07T09:16:02.103Z,4.80
2018-12-07T09:17:02.117Z,5.50
2018-12-07T09:18:02.089Z,5.30
2018-12-07T09:19:02.152Z,4.70
2018-12-07T09:20:02.039Z,4.90
2018-12-07T09:21:02.023Z,4.40
2018-12-07T09:22:02.015Z,4.60
2018-12-07T09:23:02.031Z,5.00
2018-12-07T09:24:01.992Z,4.90
2018-12-07T09:25:02.028Z,5.40
2018-12-07T09:26:01.984Z,4.70
2018-12-07T09:27:01.957Z,5.00
2018-12-07T09:28:01.946Z,4.70
2018-12-07T09:29:01.938Z,4.10
2018-12-07T09:30:01.949Z,5.80
2018-12-07T09:31:01.913Z,4.80
2018-12-07T09:32:01.901Z,4.80
2018-12-07T09:33:01.899Z,4.30
2018-12-07T09:34:01.879Z,4.30
2018-12-07T09:35:01.898Z,4.40
2018-12-07T09:36:01.857Z,4.20
2018-12-07T09:37:01.867Z,3.40
2018-12-07T09:38:01.894Z,3.90
2018-12-07T09:39:01.823Z,3.90
2018-12-07T09:40:01.842Z,3.30
2018-12-07T09:41:01.801Z,3.60
2018-12-07T09:42:01.800Z,3.00
2018-12-07T09:43:01.786Z,3.50
2018-12-07T09:44:01.771Z,3.70
2018-12-07T09:45:01.782Z,2.90
2018-12-07T09:46:01.748Z,2.80
2018-12-07T09:47:01.737Z,3.50
2018-12-07T09:48:01.724Z,3.00
2018-12-07T09:49:01.714Z,3.00
2018-12-07T09:50:01.726Z,3.00
2018-12-07T09:51:01.691Z,2.50
2018-12-07T09:52:01.726Z,2.70
2018-12-07T09:53:01.682Z,3.20
2018-12-07T09:54:01.663Z,2.90
2018-12-07T09:55:01.669Z,3.20
2018-12-07T09:56:01.641Z,2.70
2018-12-07T09:57:01.639Z,3.00
2018-12-07T09:58:01.613Z,2.60
2018-12-07T09:59:01.606Z,2.20
2018-12-07T10:00:01.619Z,2.20
2018-12-07T10:01:01.579Z,2.20
2018-12-07T10:02:01.587Z,1.80
2018-12-07T10:03:01.558Z,2.00
2018-12-07T10:04:01.549Z,1.60
2018-12-07T10:05:01.567Z,1.80
2018-12-07T10:06:01.525Z,1.20
2018-12-07T10:07:01.518Z,1.50
2018-12-07T10:08:01.501Z,1.60
2018-12-07T10:09:01.499Z,1.40
2018-12-07T10:10:01.503Z,1.20
2018-12-07T10:11:01.468Z,1.30
2018-12-07T10:12:01.457Z,1.40
2018-12-07T10:13:07.689Z,1.10
2018-12-07T10:14:02.434Z,1.20
2018-12-07T10:15:01.464Z,1.40
2018-12-07T10:16:01.412Z,1.40
2018-12-07T10:17:01.402Z,1.00
2018-12-07T10:18:01.425Z,1.20
2018-12-07T10:19:01.396Z,1.70
2018-12-07T10:20:01.372Z,1.40
2018-12-07T10:21:01.478Z,1.30
2018-12-07T10:22:01.347Z,1.40
2018-12-07T10:23:01.338Z,1.20
2018-12-07T10:24:01.324Z,1.40
2018-12-07T10:25:01.316Z,0.90
2018-12-07T10:26:01.325Z,1.10
2018-12-07T10:27:01.306Z,1.00
2018-12-07T10:28:01.296Z,1.10
2018-12-07T10:29:01.277Z,0.80
2018-12-07T10:30:01.275Z,0.90
2018-12-07T10:31:01.356Z,1.10
2018-12-07T10:32:01.261Z,1.20
2018-12-07T10:33:01.302Z,1.30
2018-12-07T10:34:01.232Z,1.10
2018-12-07T10:35:01.211Z,0.90
2018-12-07T10:36:01.233Z,0.90
2018-12-07T10:37:01.217Z,1.20
2018-12-07T10:38:01.216Z,1.00
2018-12-07T10:39:01.181Z,0.90
2018-12-07T10:40:01.149Z,0.80
2018-12-07T10:41:01.179Z,0.60
2018-12-07T10:42:01.132Z,0.80
2018-12-07T10:43:01.128Z,0.80
2018-12-07T10:44:01.133Z,0.90
2018-12-07T10:45:01.113Z,0.90
2018-12-07T10:46:01.115Z,0.70
2018-12-07T10:47:01.094Z,0.80
2018-12-07T10:48:01.066Z,0.70
2018-12-07T10:49:01.051Z,0.60
2018-12-07T10:50:01.067Z,0.40
2018-12-07T10:51:07.735Z,0.50
2018-12-07T10:52:02.058Z,0.50
2018-12-07T10:53:01.184Z,0.50
2018-12-07T10:54:01.061Z,0.50
2018-12-07T10:55:00.992Z,0.30
2018-12-07T10:56:01.100Z,0.40
2018-12-07T10:57:00.958Z,0.60
2018-12-07T10:58:00.951Z,0.60
2018-12-07T10:59:00.967Z,0.50
2018-12-07T11:00:00.932Z,0.40
2018-12-07T11:01:00.959Z,0.40
2018-12-07T11:02:00.904Z,0.40
2018-12-07T11:03:00.901Z,0.40
2018-12-07T11:04:00.892Z,0.20
2018-12-07T11:05:00.872Z,0.20
2018-12-07T11:06:00.896Z,0.20
2018-12-07T11:07:00.851Z,0.20
2018-12-07T11:08:00.847Z,0.20
2018-12-07T11:09:00.871Z,0.20
2018-12-07T11:10:00.817Z,0.40
2018-12-07T11:11:00.833Z,0.30
2018-12-07T11:12:00.798Z,0.20
2018-12-07T11:13:00.790Z,0.30
2018-12-07T11:14:00.774Z,0.20
2018-12-07T11:15:00.760Z,0.20
2018-12-07T11:16:00.794Z,0.30
2018-12-07T11:17:00.740Z,0.20
2018-12-07T11:18:00.729Z,0.20
2018-12-07T11:19:00.714Z,0.30
2018-12-07T11:20:00.714Z,0.20
2018-12-07T11:21:00.693Z,0.20
2018-12-07T11:22:00.708Z,0.30
2018-12-07T11:23:00.681Z,0.20
2018-12-07T11:24:00.670Z,0.20
2018-12-07T11:25:00.661Z,0.30
2018-12-07T11:26:00.716Z,0.20
2018-12-07T11:27:00.650Z,0.20
2018-12-07T11:28:00.615Z,0.10
2018-12-07T11:29:00.620Z,0.10
2018-12-07T11:30:00.592Z,0.20
2018-12-07T11:31:00.586Z,0.10
2018-12-07T11:32:00.596Z,0.10
2018-12-07T11:33:00.579Z,0.10
2018-12-07T11:34:00.549Z,0.10
2018-12-07T11:35:00.557Z,0.10
2018-12-07T11:36:07.865Z,0.20
2018-12-07T11:37:01.544Z,0.10
2018-12-07T11:38:00.510Z,0.30
2018-12-07T11:39:00.498Z,0.10
2018-12-07T11:40:00.496Z,0.30
2018-12-07T11:41:00.478Z,0.20
2018-12-07T11:42:00.492Z,0.10
2018-12-07T11:43:00.486Z,0.10
2018-12-07T11:44:00.526Z,0.10
2018-12-07T11:45:00.433Z,0.10
2018-12-07T11:46:00.422Z,0.10
2018-12-07T11:47:00.427Z,0.10
2018-12-07T11:48:00.410Z,0.10
2018-12-07T11:49:00.395Z,0.10
2018-12-07T11:50:00.387Z,0.20
2018-12-07T11:51:00.373Z,0.10
2018-12-07T11:52:00.451Z,0.10
2018-12-07T11:53:00.406Z,0.10
2018-12-07T11:54:00.352Z,0.10
2018-12-07T11:55:00.323Z,0.10
2018-12-07T11:56:00.334Z,0.10
2018-12-07T11:57:00.316Z,0.10
2018-12-07T11:58:00.287Z,0.10
2018-12-07T11:59:00.281Z,0.10
2018-12-07T12:00:00.264Z,0.00
2018-12-07T12:01:00.268Z,0.10
2018-12-07T12:02:00.268Z,0.10
2018-12-07T12:03:00.232Z,0.10
2018-12-07T12:04:00.231Z,0.10
2018-12-07T12:05:00.207Z,0.00
2018-12-07T12:06:00.200Z,0.10
2018-12-07T12:07:00.231Z,0.10
2018-12-07T12:08:00.180Z,0.10
2018-12-07T12:09:00.160Z,0.10
2018-12-07T12:10:00.155Z,0.10
2018-12-07T12:11:00.139Z,0.10
2018-12-07T12:12:00.147Z,0.10
2018-12-07T12:13:00.119Z,0.00
2018-12-07T12:14:00.115Z,0.00
2018-12-07T12:15:00.094Z,0.00
2018-12-07T12:16:00.095Z,0.00
2018-12-07T12:17:00.110Z,0.00
2018-12-07T12:18:00.063Z,0.10
2018-12-07T12:19:00.059Z,0.10
2018-12-07T12:20:00.045Z,0.00
2018-12-07T12:21:00.044Z,0.10
2018-12-07T12:22:00.045Z,0.00
2018-12-07T12:23:00.007Z,0.10
2018-12-07T12:23:59.998Z,0.00
2018-12-07T12:24:59.989Z,0.00
2018-12-07T12:25:59.976Z,0.00
2018-12-07T12:26:59.962Z,0.00
2018-12-07T12:28:00.053Z,0.00
2018-12-07T12:28:59.942Z,0.10
2018-12-07T12:29:59.931Z,0.00
2018-12-07T12:30:59.925Z,0.10
2018-12-07T12:31:59.908Z,0.00
2018-12-07T12:32:59.918Z,0.00
2018-12-07T12:33:59.902Z,0.00
2018-12-07T12:34:59.875Z,0.00
2018-12-07T12:35:59.866Z,0.00
2018-12-07T12:36:59.864Z,0.00
2018-12-07T12:37:59.882Z,0.00
2018-12-07T12:38:59.837Z,0.10
2018-12-07T12:39:59.821Z,0.00
2018-12-07T12:40:59.828Z,0.10
2018-12-07T12:41:59.798Z,0.10
2018-12-07T12:42:59.816Z,0.00
2018-12-07T12:43:59.804Z,0.00
2018-12-07T12:44:59.787Z,0.00
2018-12-07T12:45:59.757Z,0.00
2018-12-07T12:46:59.743Z,0.00
2018-12-07T12:47:59.775Z,0.10
2018-12-07T12:48:59.726Z,0.00
2018-12-07T12:49:59.722Z,0.00
2018-12-07T12:50:59.707Z,0.00
2018-12-07T12:51:59.691Z,0.10
2018-12-07T12:52:59.711Z,0.10
2018-12-07T12:53:59.678Z,0.10
2018-12-07T12:54:59.661Z,0.10
2018-12-07T12:55:59.645Z,0.10
2018-12-07T12:56:59.640Z,0.10
2018-12-07T12:57:59.663Z,0.10
2018-12-07T12:58:59.620Z,0.00
2018-12-07T12:59:59.616Z,0.10
2018-12-07T13:00:59.590Z,0.10
2018-12-07T13:01:59.580Z,0.00
2018-12-07T13:02:59.606Z,0.00
2018-12-07T13:03:59.585Z,0.00
2018-12-07T13:04:59.561Z,0.00
2018-12-07T13:05:59.536Z,0.10
2018-12-07T13:06:59.530Z,0.00
2018-12-07T13:07:59.560Z,0.10
2018-12-07T13:08:59.533Z,0.10
2018-12-07T13:09:59.494Z,0.00
2018-12-07T13:10:59.488Z,0.00
2018-12-07T13:11:59.491Z,0.00
2018-12-07T13:12:59.539Z,0.00
2018-12-07T13:13:59.477Z,0.00
2018-12-07T13:14:59.447Z,0.00
2018-12-07T13:15:59.432Z,0.10
2018-12-07T13:16:59.424Z,0.00
2018-12-07T13:17:59.454Z,0.00